createdAt,value
2023-05-02T00:01:44.969Z,6.47
2023-05-02T00:04:11.438Z,6.05
2023-05-02T00:06:37.792Z,6.80
2023-05-02T00:09:04.142Z,6.68
2023-05-02T00:11:30.486Z,6.43
2023-05-02T00:13:56.752Z,6.65
2023-05-02T00:16:23.241Z,6.40
2023-05-02T00:18:49.624Z,6.60
2023-05-02T00:21:15.996Z,6.35
2023-05-02T00:23:42.333Z,7.15
2023-05-02T00:26:09.196Z,6.90
2023-05-02T00:31:02.180Z,6.00
2023-05-02T00:33:28.401Z,5.30
2023-05-02T00:35:54.614Z,5.38
2023-05-02T00:38:20.821Z,5.97
2023-05-02T00:40:48.003Z,6.28
2023-05-02T00:43:14.934Z,5.78
2023-05-02T00:45:43.335Z,5.30
2023-05-02T00:48:10.473Z,6.00
2023-05-02T00:50:40.940Z,5.97
2023-05-02T00:53:08.048Z,5.93
2023-05-02T00:55:34.696Z,5.40
2023-05-02T00:58:02.081Z,5.03
2023-05-02T01:00:37.297Z,5.43
2023-05-02T01:03:12.680Z,5.70
2023-05-02T01:05:46.126Z,6.03
2023-05-02T01:08:30.485Z,5.63
2023-05-02T01:11:15.267Z,5.05
2023-05-02T01:13:42.636Z,5.35
2023-05-02T01:16:10.218Z,6.20
2023-05-02T01:18:38.585Z,5.50
2023-05-02T01:21:06.986Z,5.70
2023-05-02T01:23:39.799Z,5.10
2023-05-02T01:26:17.355Z,5.35
2023-05-02T01:31:10.876Z,5.03
2023-05-02T01:33:38.154Z,5.93
2023-05-02T01:36:05.654Z,5.93
2023-05-02T01:38:32.929Z,5.32
2023-05-02T01:41:03.385Z,5.47
2023-05-02T01:43:30.289Z,5.35
2023-05-02T01:48:24.923Z,5.05
2023-05-02T01:50:51.772Z,5.07
2023-05-02T01:53:18.680Z,4.72
2023-05-02T01:58:12.023Z,5.10
2023-05-02T02:03:06.848Z,5.30
2023-05-02T02:05:34.709Z,4.95
2023-05-02T02:08:01.181Z,4.88
2023-05-02T02:10:29.780Z,5.45
2023-05-02T02:13:00.832Z,4.57
2023-05-02T02:15:27.149Z,4.65
2023-05-02T02:17:56.757Z,4.50
2023-05-02T02:20:23.076Z,4.55
2023-05-02T02:22:49.979Z,4.85
2023-05-02T02:25:16.973Z,4.55
2023-05-02T02:27:43.520Z,4.22
2023-05-02T02:30:10.217Z,4.95
2023-05-02T02:32:36.621Z,4.65
2023-05-02T02:35:03.317Z,5.55
2023-05-02T02:37:31.349Z,4.90
2023-05-02T02:40:08.189Z,4.95
2023-05-02T02:42:39.915Z,5.60
2023-05-02T02:45:09.169Z,5.03
2023-05-02T02:47:43.864Z,4.80
2023-05-02T02:50:13.210Z,4.70
2023-05-02T02:52:52.209Z,5.03
2023-05-02T02:55:24.914Z,5.15
2023-05-02T02:58:06.158Z,5.15
2023-05-02T03:00:32.536Z,5.80
2023-05-02T03:02:58.878Z,5.68
2023-05-02T03:05:25.345Z,4.90
2023-05-02T03:07:51.837Z,4.47
2023-05-02T03:10:18.058Z,4.88
2023-05-02T03:12:44.298Z,4.43
2023-05-02T03:15:28.854Z,4.38
2023-05-02T03:17:55.231Z,4.47
2023-05-02T03:20:21.507Z,4.82
2023-05-02T03:22:47.758Z,4.15
2023-05-02T03:25:14.001Z,4.50
2023-05-02T03:27:40.217Z,4.10
2023-05-02T03:30:07.044Z,3.83
2023-05-02T03:32:33.340Z,4.70
2023-05-02T03:35:00.097Z,4.32
2023-05-02T03:37:26.340Z,4.70
2023-05-02T03:39:52.558Z,5.13
2023-05-02T03:42:18.798Z,6.18
2023-05-02T03:44:45.016Z,5.32
2023-05-02T03:47:13.597Z,5.53
2023-05-02T03:49:40.090Z,5.88
2023-05-02T03:52:06.693Z,5.40
2023-05-02T03:54:33.077Z,5.65
2023-05-02T03:56:59.460Z,5.18
2023-05-02T03:59:25.698Z,5.40
2023-05-02T04:01:52.008Z,4.72
2023-05-02T04:04:18.410Z,4.13
2023-05-02T04:06:44.698Z,4.13
2023-05-02T04:09:11.022Z,4.03
2023-05-02T04:11:37.290Z,4.55
2023-05-02T04:14:04.354Z,5.07
2023-05-02T04:16:30.601Z,4.95
2023-05-02T04:18:56.867Z,5.03
2023-05-02T04:21:23.157Z,4.38
2023-05-02T04:23:49.369Z,5.85
2023-05-02T04:26:16.370Z,6.85
2023-05-02T04:31:08.799Z,6.68
2023-05-02T04:33:35.069Z,6.75
2023-05-02T04:36:01.301Z,7.00
2023-05-02T04:38:27.627Z,6.57
2023-05-02T04:40:53.889Z,7.20
2023-05-02T04:43:21.044Z,6.88
2023-05-02T04:45:48.043Z,7.43
2023-05-02T04:48:14.402Z,7.38
2023-05-02T04:50:40.649Z,9.48
2023-05-02T04:53:07.214Z,8.68
2023-05-02T04:55:33.455Z,10.15
2023-05-02T04:57:59.684Z,11.15
2023-05-02T05:00:25.935Z,13.20
2023-05-02T05:02:53.132Z,16.70
2023-05-02T05:05:20.311Z,14.82
2023-05-02T05:07:46.555Z,17.83
2023-05-02T05:10:12.790Z,20.20
2023-05-02T05:12:39.065Z,17.10
2023-05-02T05:15:05.739Z,17.58
2023-05-02T05:17:32.093Z,18.10
2023-05-02T05:19:58.584Z,16.80
2023-05-02T05:22:24.913Z,17.92
2023-05-02T05:24:54.703Z,18.70
2023-05-02T05:27:21.375Z,17.13
2023-05-02T05:29:47.850Z,15.75
2023-05-02T05:32:14.365Z,13.13
2023-05-02T05:34:40.849Z,14.23
2023-05-02T05:37:07.184Z,12.85
2023-05-02T05:39:33.407Z,12.82
2023-05-02T05:42:00.654Z,14.23
2023-05-02T05:44:26.907Z,14.98
2023-05-02T05:46:53.256Z,16.67
2023-05-02T05:49:19.567Z,17.10
2023-05-02T05:51:47.551Z,20.05
2023-05-02T05:54:13.801Z,18.60
2023-05-02T05:56:40.069Z,18.35
2023-05-02T05:59:06.296Z,17.77
2023-05-02T06:01:34.003Z,16.38
2023-05-02T06:04:00.406Z,17.38
2023-05-02T06:06:27.446Z,17.50
2023-05-02T06:08:53.724Z,18.25
2023-05-02T06:11:20.050Z,19.02
2023-05-02T06:13:46.283Z,19.02
2023-05-02T06:16:12.582Z,21.02
2023-05-02T06:18:38.915Z,23.35
2023-05-02T06:21:05.638Z,26.25
2023-05-02T06:23:33.291Z,25.65
2023-05-02T06:26:00.693Z,28.25
2023-05-02T06:28:27.021Z,25.92
2023-05-02T06:31:03.163Z,26.48
2023-05-02T06:33:29.718Z,26.27
2023-05-02T06:35:56.488Z,26.35
2023-05-02T06:38:22.950Z,30.35
2023-05-02T06:40:49.273Z,30.35
2023-05-02T06:43:15.682Z,31.58
2023-05-02T06:45:42.124Z,31.30
2023-05-02T06:48:08.665Z,31.27
2023-05-02T06:50:34.984Z,33.88
2023-05-02T06:53:01.512Z,34.47
2023-05-02T06:55:27.948Z,36.00
2023-05-02T06:57:54.405Z,35.78
2023-05-02T07:00:21.188Z,40.42
2023-05-02T07:02:48.160Z,37.60
2023-05-02T07:07:42.672Z,39.15
2023-05-02T07:10:09.474Z,41.35
2023-05-02T07:12:35.718Z,40.55
2023-05-02T07:15:01.965Z,40.45
2023-05-02T07:17:28.222Z,40.05
2023-05-02T07:19:54.535Z,42.17
2023-05-02T07:22:20.956Z,43.70
2023-05-02T07:24:47.219Z,42.15
2023-05-02T07:27:13.664Z,41.47
2023-05-02T07:29:40.272Z,42.25
2023-05-02T07:32:06.666Z,42.03
2023-05-02T07:34:32.970Z,40.75
2023-05-02T07:36:59.186Z,39.75
2023-05-02T07:39:25.786Z,40.05
2023-05-02T07:41:52.421Z,39.05
2023-05-02T07:44:18.687Z,39.90
2023-05-02T07:46:45.129Z,40.15
2023-05-02T07:49:11.460Z,39.65
2023-05-02T07:51:39.763Z,40.25
2023-05-02T07:54:18.625Z,41.60
2023-05-02T07:56:44.944Z,41.03
2023-05-02T07:59:11.340Z,40.40
2023-05-02T08:01:38.023Z,39.22
2023-05-02T08:04:04.660Z,39.00
2023-05-02T08:06:32.629Z,37.90
2023-05-02T08:08:59.282Z,36.50
2023-05-02T08:11:25.755Z,37.97
2023-05-02T08:13:52.287Z,36.83
2023-05-02T08:16:18.803Z,35.00
2023-05-02T08:18:45.473Z,33.92
2023-05-02T08:21:11.777Z,33.47
2023-05-02T08:23:38.132Z,33.33
2023-05-02T08:26:04.493Z,32.55
2023-05-02T08:28:30.723Z,32.85
2023-05-02T08:30:57.439Z,31.30
2023-05-02T08:33:23.878Z,32.17
2023-05-02T08:35:50.266Z,32.38
2023-05-02T08:38:17.134Z,29.77
2023-05-02T08:43:10.805Z,29.75
2023-05-02T08:45:39.774Z,30.48
2023-05-02T08:48:07.184Z,30.90
2023-05-02T08:50:36.769Z,30.70
2023-05-02T08:53:04.701Z,30.20
2023-05-02T08:55:30.993Z,31.27
2023-05-02T08:57:57.771Z,28.60
2023-05-02T09:02:53.468Z,24.83
2023-05-02T09:05:23.704Z,25.02
2023-05-02T09:07:50.949Z,26.65
2023-05-02T09:10:17.218Z,28.88
2023-05-02T09:12:43.606Z,26.40
2023-05-02T09:15:09.807Z,23.63
2023-05-02T09:17:40.009Z,23.83
2023-05-02T09:20:06.685Z,24.00
2023-05-02T09:25:00.032Z,22.90
2023-05-02T09:27:27.268Z,22.45
2023-05-02T09:30:13.621Z,22.60
2023-05-02T09:32:46.469Z,22.73
2023-05-02T09:35:13.482Z,25.25
2023-05-02T09:37:39.710Z,25.65
2023-05-02T09:40:07.032Z,25.40
2023-05-02T09:42:33.420Z,25.02
2023-05-02T09:44:59.906Z,24.88
2023-05-02T09:47:29.354Z,23.45
2023-05-02T09:49:55.598Z,21.70
2023-05-02T09:52:21.864Z,21.33
2023-05-02T09:54:50.501Z,20.45
2023-05-02T09:57:16.762Z,20.10
2023-05-02T09:59:52.897Z,21.40
2023-05-02T10:02:19.784Z,21.42
2023-05-02T10:04:47.178Z,20.67
2023-05-02T10:07:14.270Z,19.40
2023-05-02T10:09:43.308Z,20.88
2023-05-02T10:12:09.903Z,19.77
2023-05-02T10:14:39.477Z,18.63
2023-05-02T10:17:10.369Z,18.95
2023-05-02T10:19:53.934Z,17.77
2023-05-02T10:22:21.090Z,18.75
2023-05-02T10:24:49.416Z,17.23
2023-05-02T10:27:15.914Z,17.52
2023-05-02T10:29:42.717Z,17.27
2023-05-02T10:34:36.582Z,15.38
2023-05-02T10:37:03.104Z,16.15
2023-05-02T10:39:29.692Z,14.35
2023-05-02T10:41:57.932Z,14.27
2023-05-02T10:44:40.083Z,14.73
2023-05-02T10:47:18.385Z,13.85
2023-05-02T10:49:49.707Z,13.82
2023-05-02T10:52:26.021Z,13.75
2023-05-02T10:54:52.269Z,13.77
2023-05-02T10:57:18.585Z,12.85
2023-05-02T10:59:46.394Z,14.73
2023-05-02T11:02:23.396Z,12.98
2023-05-02T11:05:01.231Z,13.25
2023-05-02T11:07:28.625Z,12.25
2023-05-02T11:10:14.921Z,12.30
2023-05-02T11:12:45.725Z,12.50
2023-05-02T11:15:14.944Z,12.77
2023-05-02T11:18:01.248Z,13.82
2023-05-02T11:20:27.959Z,12.63
2023-05-02T11:25:30.824Z,12.75
2023-05-02T11:27:57.808Z,12.35
2023-05-02T11:30:40.808Z,12.57
2023-05-02T11:33:07.080Z,11.50
2023-05-02T11:35:34.573Z,10.93
2023-05-02T11:38:04.806Z,11.00
2023-05-02T11:40:31.621Z,10.73
2023-05-02T11:42:58.675Z,9.48
2023-05-02T11:45:34.583Z,9.65
2023-05-02T11:48:00.956Z,9.17
2023-05-02T11:50:27.622Z,9.15
2023-05-02T11:52:53.867Z,8.63
2023-05-02T11:55:20.272Z,9.05
2023-05-02T11:57:46.760Z,9.07
2023-05-02T12:00:13.260Z,9.18
2023-05-02T12:02:46.672Z,8.93
2023-05-02T12:05:13.899Z,9.02
2023-05-02T12:07:48.980Z,7.82
2023-05-02T12:10:15.740Z,7.60
2023-05-02T12:12:43.127Z,8.25
2023-05-02T12:15:10.455Z,8.48
2023-05-02T12:17:43.773Z,8.55
2023-05-02T12:20:10.732Z,7.22
2023-05-02T12:22:37.709Z,6.88
2023-05-02T12:25:07.103Z,6.68
2023-05-02T12:27:34.531Z,6.38
2023-05-02T12:30:00.982Z,5.88
2023-05-02T12:32:31.163Z,6.35
2023-05-02T12:34:57.869Z,6.57
2023-05-02T12:37:24.920Z,5.03
2023-05-02T12:39:51.581Z,4.65
2023-05-02T12:42:19.343Z,5.00
2023-05-02T12:44:46.433Z,4.32
2023-05-02T12:47:13.446Z,4.50
2023-05-02T12:49:48.630Z,4.07
2023-05-02T12:52:14.851Z,3.67
2023-05-02T12:54:41.083Z,3.60
2023-05-02T12:57:07.828Z,3.97
2023-05-02T12:59:34.165Z,3.90
2023-05-02T13:02:00.475Z,3.75
2023-05-02T13:04:36.746Z,3.13
2023-05-02T13:07:02.975Z,3.15
2023-05-02T13:09:29.180Z,2.95
2023-05-02T13:11:55.470Z,3.20
2023-05-02T13:14:21.828Z,2.45
2023-05-02T13:16:49.222Z,2.40
2023-05-02T13:19:15.554Z,2.70
2023-05-02T13:24:07.991Z,3.55
2023-05-02T13:29:00.583Z,4.07
2023-05-02T13:33:53.691Z,5.80
2023-05-02T13:36:19.933Z,5.38
2023-05-02T13:41:12.423Z,4.82
2023-05-02T13:46:07.130Z,3.65
2023-05-02T13:50:59.597Z,3.50
2023-05-02T13:53:25.821Z,3.00
2023-05-02T13:55:52.109Z,2.85
2023-05-02T14:00:44.511Z,3.20
2023-05-02T14:05:40.875Z,2.63
2023-05-02T14:08:07.107Z,2.53
2023-05-02T14:12:59.530Z,3.20
2023-05-02T14:17:53.338Z,3.55
2023-05-02T14:20:19.647Z,3.28
2023-05-02T14:25:12.852Z,3.50
2023-05-02T14:27:39.100Z,3.00
2023-05-02T14:32:31.824Z,2.63
2023-05-02T14:37:24.300Z,3.05
2023-05-02T14:39:54.761Z,3.90
2023-05-02T14:42:21.894Z,3.60
2023-05-02T14:44:48.148Z,3.15
2023-05-02T14:47:14.530Z,3.05
2023-05-02T14:49:40.853Z,3.00
2023-05-02T14:52:07.255Z,3.38
2023-05-02T14:54:33.472Z,3.28
2023-05-02T14:57:00.193Z,3.40
2023-05-02T14:59:29.807Z,2.83
2023-05-02T15:01:56.497Z,2.92
2023-05-02T15:04:23.856Z,2.58
2023-05-02T15:06:53.660Z,3.10
2023-05-02T15:09:19.928Z,2.88
2023-05-02T15:11:46.140Z,3.30
2023-05-02T15:16:39.554Z,4.00
2023-05-02T15:19:05.850Z,4.15
2023-05-02T15:21:32.609Z,4.70
2023-05-02T15:23:58.898Z,4.35
2023-05-02T15:26:25.961Z,4.80
2023-05-02T15:28:52.261Z,4.60
2023-05-02T15:33:44.721Z,5.05
2023-05-02T15:38:42.265Z,4.32
2023-05-02T15:41:09.801Z,4.75
2023-05-02T15:43:36.327Z,4.28
2023-05-02T15:46:02.605Z,4.32
2023-05-02T15:50:55.445Z,3.88
2023-05-02T15:53:22.972Z,3.45
2023-05-02T15:55:50.323Z,3.08
2023-05-02T15:58:17.512Z,3.28
2023-05-02T16:00:44.035Z,3.30
2023-05-02T16:03:12.079Z,3.20
2023-05-02T16:05:38.602Z,3.22
2023-05-02T16:08:05.124Z,2.53
2023-05-02T16:10:31.600Z,2.80
2023-05-02T16:12:57.864Z,2.72
2023-05-02T16:15:24.327Z,2.20
2023-05-02T16:20:17.505Z,2.10
2023-05-02T16:22:45.439Z,2.33
2023-05-02T16:25:12.553Z,2.08
2023-05-02T16:27:38.933Z,2.50
2023-05-02T16:32:32.765Z,4.05
2023-05-02T16:34:59.145Z,3.22
2023-05-02T16:37:25.622Z,3.58
2023-05-02T16:42:18.035Z,2.97
2023-05-02T16:44:44.285Z,2.80
2023-05-02T16:47:10.950Z,4.05
2023-05-02T16:49:37.329Z,3.83
2023-05-02T16:52:03.596Z,3.88
2023-05-02T16:54:29.833Z,5.22
2023-05-02T16:56:56.283Z,5.00
2023-05-02T16:59:22.511Z,4.68
2023-05-02T17:01:49.869Z,4.50
2023-05-02T17:04:16.502Z,3.97
2023-05-02T17:09:09.620Z,3.90
2023-05-02T17:11:36.150Z,4.30
2023-05-02T17:14:02.402Z,4.43
2023-05-02T17:16:28.769Z,4.55
2023-05-02T17:18:55.153Z,3.88
2023-05-02T17:21:21.387Z,3.88
2023-05-02T17:23:47.648Z,4.68
2023-05-02T17:26:14.944Z,4.72
2023-05-02T17:28:41.871Z,3.72
2023-05-02T17:31:08.161Z,5.15
2023-05-02T17:33:35.327Z,4.13
2023-05-02T17:36:01.542Z,4.50
2023-05-02T17:38:27.771Z,4.80
2023-05-02T17:40:54.004Z,5.22
2023-05-02T17:43:20.279Z,4.55
2023-05-02T17:45:46.530Z,4.00
2023-05-02T17:48:12.846Z,4.43
2023-05-02T17:50:39.317Z,4.40
2023-05-02T17:53:06.518Z,3.85
2023-05-02T17:55:33.034Z,4.10
2023-05-02T17:57:59.368Z,3.80
2023-05-02T18:00:26.391Z,3.97
2023-05-02T18:02:52.999Z,4.10
2023-05-02T18:05:19.272Z,4.10
2023-05-02T18:07:45.539Z,3.67
2023-05-02T18:10:11.845Z,3.67
2023-05-02T18:12:38.060Z,3.30
2023-05-02T18:15:05.894Z,3.60
2023-05-02T18:17:32.544Z,3.97
2023-05-02T18:19:58.991Z,3.95
2023-05-02T18:22:25.465Z,4.00
2023-05-02T18:24:53.292Z,3.90
2023-05-02T18:27:19.552Z,3.97
2023-05-02T18:29:45.824Z,4.13
2023-05-02T18:32:12.067Z,3.90
2023-05-02T18:34:39.151Z,3.67
2023-05-02T18:37:14.790Z,3.10
2023-05-02T18:39:41.067Z,3.00
2023-05-02T18:42:08.234Z,3.38
2023-05-02T18:44:34.541Z,3.83
2023-05-02T18:47:00.992Z,2.80
2023-05-02T18:49:27.222Z,2.67
2023-05-02T18:51:54.334Z,2.70
2023-05-02T18:54:20.679Z,2.97
2023-05-02T18:56:47.514Z,3.28
2023-05-02T19:01:40.011Z,2.90
2023-05-02T19:04:06.397Z,3.60
2023-05-02T19:06:33.148Z,3.00
2023-05-02T19:11:26.152Z,3.10
2023-05-02T19:13:52.564Z,3.38
2023-05-02T19:16:20.666Z,3.75
2023-05-02T19:18:49.569Z,4.07
2023-05-02T19:21:15.804Z,4.32
2023-05-02T19:23:43.313Z,4.15
2023-05-02T19:26:10.613Z,3.70
2023-05-02T19:28:36.875Z,3.60
2023-05-02T19:31:07.258Z,3.97
2023-05-02T19:33:33.460Z,3.55
2023-05-02T19:35:59.688Z,3.50
2023-05-02T19:38:25.954Z,3.90
2023-05-02T19:40:52.186Z,4.07
2023-05-02T19:43:18.407Z,3.88
2023-05-02T19:45:44.673Z,4.47
2023-05-02T19:48:12.154Z,4.45
2023-05-02T19:50:39.062Z,4.05
2023-05-02T19:53:05.351Z,4.38
2023-05-02T19:55:31.578Z,4.63
2023-05-02T19:57:59.957Z,4.40
2023-05-02T20:00:26.239Z,4.15
2023-05-02T20:02:52.604Z,4.90
2023-05-02T20:05:19.350Z,4.40
2023-05-02T20:07:46.450Z,4.75
2023-05-02T20:10:12.744Z,5.15
2023-05-02T20:12:39.077Z,4.90
2023-05-02T20:15:05.646Z,4.43
2023-05-02T20:17:32.050Z,5.00
2023-05-02T20:19:58.431Z,5.22
2023-05-02T20:22:24.649Z,4.53
2023-05-02T20:24:50.880Z,4.78
2023-05-02T20:27:17.118Z,4.35
2023-05-02T20:29:43.346Z,4.57
2023-05-02T20:32:09.640Z,4.20
2023-05-02T20:34:36.152Z,4.47
2023-05-02T20:37:05.201Z,4.30
2023-05-02T20:39:31.604Z,4.63
2023-05-02T20:41:58.294Z,4.25
2023-05-02T20:44:26.305Z,4.82
2023-05-02T20:46:52.610Z,5.18
2023-05-02T20:49:18.909Z,4.93
2023-05-02T20:51:45.282Z,5.90
2023-05-02T20:54:11.526Z,4.72
2023-05-02T20:56:56.502Z,5.38
2023-05-02T20:59:25.480Z,5.65
2023-05-02T21:08:00.274Z,5.22
2023-05-02T21:10:27.835Z,4.97
2023-05-02T21:19:42.824Z,5.30
2023-05-02T21:22:09.042Z,5.18
2023-05-02T21:24:35.395Z,5.57
2023-05-02T21:27:01.934Z,5.70
2023-05-02T21:29:28.227Z,5.63
2023-05-02T21:31:54.938Z,5.53
2023-05-02T21:34:21.293Z,5.82
2023-05-02T21:36:47.565Z,6.07
2023-05-02T21:39:13.841Z,6.75
2023-05-02T21:41:40.143Z,6.50
2023-05-02T21:44:06.399Z,6.22
2023-05-02T21:46:33.058Z,5.55
2023-05-02T21:48:59.312Z,5.93
2023-05-02T21:51:25.597Z,5.90
2023-05-02T21:53:52.501Z,6.00
2023-05-02T21:56:18.756Z,5.95
2023-05-02T21:58:47.659Z,6.63
2023-05-02T22:01:13.941Z,7.53
2023-05-02T22:03:40.482Z,6.40
2023-05-02T22:06:07.057Z,6.28
2023-05-02T22:08:33.655Z,6.47
2023-05-02T22:10:59.970Z,6.45
2023-05-02T22:13:26.796Z,6.53
2023-05-02T22:15:53.053Z,6.43
2023-05-02T22:18:19.391Z,6.40
2023-05-02T22:20:45.864Z,8.43
2023-05-02T22:23:12.338Z,7.07
2023-05-02T22:25:43.038Z,6.82
2023-05-02T22:28:11.518Z,6.40
2023-05-02T22:30:38.473Z,6.55
2023-05-02T22:35:31.088Z,5.72
2023-05-02T22:37:59.171Z,6.60
2023-05-02T22:40:25.525Z,6.20
2023-05-02T22:42:51.739Z,5.50
2023-05-02T22:45:18.069Z,6.28
2023-05-02T22:47:44.372Z,6.10
2023-05-02T22:50:11.134Z,5.90
2023-05-02T22:52:38.066Z,6.00
2023-05-02T22:57:30.872Z,5.90
2023-05-02T22:59:57.263Z,5.70
2023-05-02T23:02:23.495Z,5.55
2023-05-02T23:04:50.588Z,5.75
2023-05-02T23:07:16.809Z,5.72
2023-05-02T23:09:43.020Z,6.25
2023-05-02T23:12:09.241Z,5.78
2023-05-02T23:14:35.625Z,6.28
2023-05-02T23:17:03.160Z,6.65
2023-05-02T23:19:29.585Z,6.35
2023-05-02T23:21:57.233Z,6.53
2023-05-02T23:24:23.558Z,6.70
2023-05-02T23:26:49.801Z,6.70
2023-05-02T23:29:16.076Z,6.68
2023-05-02T23:31:42.456Z,7.32
2023-05-02T23:34:09.541Z,7.53
2023-05-02T23:39:02.478Z,7.20
2023-05-02T23:41:29.422Z,7.13
2023-05-02T23:46:21.953Z,6.18
2023-05-02T23:48:48.270Z,6.85
2023-05-02T23:51:14.544Z,6.25
2023-05-02T23:53:40.786Z,6.38
2023-05-02T23:56:07.132Z,6.50
2023-05-02T23:58:33.374Z,6.10
